Time;durP1;ratioP1;P1;durP2;ratioP2;P2;SDS_P1;SDS_P2;PMS_P1;PMS_P2;Temp;Humidity;BMP_temperature;BMP_pressure;BME280_temperature;BME280_humidity;BME280_pressure;Samples;Min_cycle;Max_cycle;Signal;HPM_P1;HPM_P2
2022/09/28 00:02:35;;;;;;;1.05;0.60;;;;;;;17.16;98.90;99191.88;20759273;27;20053;-74
2022/09/28 00:12:37;;;;;;;2.47;0.70;;;;;;;17.06;98.93;99177.81;20755756;27;20524;-74
2022/09/28 00:22:38;;;;;;;0.95;0.50;;;;;;;17.18;98.71;99207.88;20746888;27;20045;-74
2022/09/28 00:32:40;;;;;;;1.15;0.60;;;;;;;17.17;98.91;99190.88;20756674;27;20057;-73
2022/09/28 00:42:43;;;;;;;1.08;0.50;;;;;;;17.16;98.83;99181.13;20738630;27;20112;-74
2022/09/28 00:53:00;;;;;;;0.88;0.50;;;;;;;17.16;98.86;99174.94;20752092;27;20097;-74
2022/09/28 01:03:02;;;;;;;1.30;0.80;;;;;;;17.17;98.68;99184.69;20744174;27;20057;-73
2022/09/28 01:13:04;;;;;;;1.25;0.60;;;;;;;17.15;98.57;99171.38;20746871;27;20632;-73
2022/09/28 01:23:22;;;;;;;0.85;0.57;;;;;;;16.55;98.54;99063.38;20820342;27;20053;-73
2022/09/28 01:33:28;;;;;;;1.02;0.50;;;;;;;17.16;98.61;99159.63;20739153;27;20057;-73
2022/09/28 01:43:31;;;;;;;0.63;0.40;;;;;;;16.88;98.54;99114.34;20755409;27;20497;-73
2022/09/28 01:53:53;;;;;;;1.23;0.63;;;;;;;16.92;98.53;99110.28;20739834;27;20056;-74
2022/09/28 02:04:06;;;;;;;1.40;0.60;;;;;;;17.06;98.44;99132.09;20751728;27;20053;-74
2022/09/28 02:14:10;;;;;;;1.00;0.40;;;;;;;17.15;98.29;99141.81;20758672;27;20049;-73
2022/09/28 02:24:26;;;;;;;1.58;0.57;;;;;;;16.88;98.34;99108.13;20732694;27;20044;-73
2022/09/28 02:34:28;;;;;;;0.60;0.40;;;;;;;17.13;98.37;99154.59;20734798;27;20463;-74
2022/09/28 02:44:36;;;;;;;0.70;0.50;;;;;;;17.15;98.35;99167.88;20735959;27;20052;-73
2022/09/28 02:55:01;;;;;;;0.63;0.40;;;;;;;17.15;98.26;99170.56;20764096;27;20053;-74
2022/09/28 03:05:09;;;;;;;0.73;0.43;;;;;;;17.13;98.28;99170.72;20777396;27;20118;-74
2022/09/28 03:15:13;;;;;;;0.85;0.50;;;;;;;17.13;98.28;99169.91;20836395;27;20207;-73
2022/09/28 03:25:16;;;;;;;1.58;0.47;;;;;;;17.13;98.13;99169.91;20876590;27;20694;-74
2022/09/28 03:35:17;;;;;;;0.85;0.60;;;;;;;17.12;98.13;99171.75;20875424;27;20037;-74
2022/09/28 03:45:19;;;;;;;1.30;0.52;;;;;;;17.12;98.06;99173.59;20874116;27;20052;-74
2022/09/28 03:55:23;;;;;;;1.10;0.65;;;;;;;17.10;97.97;99171.94;20857941;27;20568;-73
2022/09/28 04:05:25;;;;;;;0.45;0.30;;;;;;;17.12;98.00;99168.22;20984364;27;20482;-75
2022/09/28 04:15:26;;;;;;;0.57;0.40;;;;;;;17.11;97.96;99167.38;20764464;27;20050;-74
2022/09/28 04:25:28;;;;;;;0.38;0.38;;;;;;;17.04;97.90;99155.63;20731968;27;20118;-74
2022/09/28 04:35:31;;;;;;;0.63;0.40;;;;;;;16.72;98.10;99141.25;20741286;27;20219;-74
2022/09/28 04:45:33;;;;;;;0.52;0.32;;;;;;;17.11;98.05;99186.19;20767108;27;20052;-75
2022/09/28 04:55:40;;;;;;;0.60;0.40;;;;;;;17.06;98.08;99175.97;21183181;27;20063;-74
2022/09/28 05:05:44;;;;;;;0.45;0.30;;;;;;;17.10;97.83;99192.59;21147983;27;20043;-74
2022/09/28 05:16:04;;;;;;;0.90;0.30;;;;;;;17.08;97.95;99187.41;21217731;27;20039;-75
2022/09/28 05:26:13;;;;;;;0.70;0.40;;;;;;;16.89;97.80;99159.03;21184030;27;20050;-75
2022/09/28 05:36:14;;;;;;;0.75;0.40;;;;;;;17.09;97.80;99190.91;21214848;27;20411;-75
2022/09/28 05:46:17;;;;;;;1.25;0.57;;;;;;;16.85;97.62;99132.66;20910892;27;20053;-73
2022/09/28 05:56:19;;;;;;;0.90;0.40;;;;;;;17.12;98.01;99176.28;20798356;27;20153;-74
2022/09/28 06:06:22;;;;;;;1.85;0.38;;;;;;;17.14;98.22;99185.84;20788443;27;20414;-73
2022/09/28 06:16:24;;;;;;;0.55;0.52;;;;;;;17.17;98.85;99193.56;20720577;27;20050;-74
2022/09/28 06:26:26;;;;;;;0.65;0.30;;;;;;;17.19;99.20;99201.47;20773505;27;20053;-73
2022/09/28 06:36:30;;;;;;;1.13;0.40;;;;;;;17.20;99.56;99209.34;20722555;28;20425;-74
2022/09/28 06:46:32;;;;;;;0.37;0.20;;;;;;;17.21;99.80;99221.78;20734764;27;20525;-73
2022/09/28 06:56:33;;;;;;;0.55;0.55;;;;;;;17.19;100.00;99226.50;20731185;27;20061;-72
2022/09/28 07:06:37;;;;;;;0.63;0.40;;;;;;;17.23;100.00;99230.53;20716044;28;20050;-73
2022/09/28 07:17:02;;;;;;;0.50;0.30;;;;;;;17.25;100.00;99244.66;20702769;27;20497;-73
2022/09/28 07:27:15;;;;;;;0.80;0.32;;;;;;;17.27;100.00;99254.41;20738241;27;20046;-74
2022/09/28 07:37:44;;;;;;;1.02;0.35;;;;;;;17.25;100.00;99250.03;20797978;27;20061;-74
2022/09/28 07:47:45;;;;;;;0.50;0.40;;;;;;;17.10;100.00;99236.47;20792010;27;20096;-74
2022/09/28 07:58:05;;;;;;;0.85;0.50;;;;;;;17.01;100.00;99232.09;20767085;27;20045;-73
2022/09/28 08:08:28;;;;;;;0.20;0.20;;;;;;;17.27;100.00;99284.00;20782299;27;20087;-74
2022/09/28 08:18:31;;;;;;;0.53;0.30;;;;;;;17.27;100.00;99294.75;20802127;27;20053;-74
2022/09/28 08:28:34;;;;;;;0.30;0.30;;;;;;;17.25;100.00;99286.84;20749497;27;20569;-74
2022/09/28 08:38:47;;;;;;;1.08;0.40;;;;;;;17.30;100.00;99307.84;20784196;27;20060;-74
2022/09/28 08:49:42;;;;;;;0.57;0.50;;;;;;;17.31;100.00;99313.03;20754565;27;20095;-74
2022/09/28 09:00:19;;;;;;;0.30;0.30;;;;;;;17.31;100.00;99326.50;20712084;27;20053;-74
2022/09/28 09:10:46;;;;;;;0.30;0.30;;;;;;;17.32;100.00;99330.03;20773247;27;20054;-74
2022/09/28 09:20:58;;;;;;;0.13;0.10;;;;;;;17.33;100.00;99331.72;20739313;27;20065;-75
2022/09/28 09:31:28;;;;;;;0.30;0.20;;;;;;;17.34;100.00;99344.16;20755318;27;20060;-73
2022/09/28 09:41:54;;;;;;;0.20;0.20;;;;;;;17.36;100.00;99348.34;20770806;27;20071;-73
2022/09/28 09:53:15;;;;;;;0.30;0.20;;;;;;;17.38;100.00;99357.06;20709341;27;20042;-73
2022/09/28 10:03:23;;;;;;;0.40;0.30;;;;;;;17.21;100.00;99334.72;20728978;27;20120;-73
2022/09/28 10:13:28;;;;;;;0.30;0.28;;;;;;;17.36;99.91;99356.41;20714264;27;20133;-73
2022/09/28 10:23:35;;;;;;;0.55;0.30;;;;;;;17.35;99.68;99351.22;20773012;27;20185;-73
2022/09/28 10:33:37;;;;;;;0.33;0.23;;;;;;;17.40;99.85;99348.84;20743092;27;20048;-74
2022/09/28 10:44:05;;;;;;;1.00;0.47;;;;;;;17.42;99.71;99352.19;20742343;27;20041;-74
2022/09/28 10:54:27;;;;;;;;;;;;;;;17.44;99.52;99358.25;20719218;27;20049;-74
2022/09/28 11:04:37;;;;;;;0.30;0.30;;;;;;;17.41;99.50;99358.59;20740266;27;20408;-73
2022/09/28 11:14:42;;;;;;;1.23;0.30;;;;;;;17.25;99.53;99341.47;20750790;27;20080;-74
2022/09/28 11:24:49;;;;;;;0.20;0.20;;;;;;;17.40;99.72;99355.03;20782774;27;20049;-74
2022/09/28 11:34:55;;;;;;;0.47;0.20;;;;;;;17.28;99.56;99329.53;20761240;27;20486;-73
2022/09/28 11:45:23;;;;;;;0.40;0.40;;;;;;;17.43;99.47;99363.78;20747496;27;20053;-73
2022/09/28 11:55:33;;;;;;;0.50;0.30;;;;;;;17.44;99.44;99363.63;20724294;27;20057;-74
2022/09/28 12:05:57;;;;;;;0.35;0.30;;;;;;;17.45;99.27;99362.63;20733382;27;20113;-73
2022/09/28 12:16:01;;;;;;;0.20;0.20;;;;;;;17.46;99.11;99363.47;20749708;27;20074;-73
2022/09/28 12:26:52;;;;;;;0.80;0.37;;;;;;;17.47;99.02;99357.91;20746252;27;20049;-74
2022/09/28 12:37:06;;;;;;;1.17;0.28;;;;;;;17.47;98.97;99355.22;20726901;27;20072;-74
2022/09/28 12:47:13;;;;;;;0.20;0.20;;;;;;;17.46;99.10;99353.53;20764524;27;20049;-74
2022/09/28 12:57:56;;;;;;;1.25;0.30;;;;;;;17.46;99.54;99369.69;20786892;27;20057;-74
2022/09/28 13:08:16;;;;;;;0.60;0.17;;;;;;;17.47;99.41;99355.22;20745351;27;20510;-73
2022/09/28 13:18:35;;;;;;;0.40;0.30;;;;;;;17.50;99.31;99357.56;20721848;27;20053;-73
2022/09/28 13:28:37;;;;;;;0.20;0.20;;;;;;;17.49;99.33;99353.19;20727996;27;22084;-74
2022/09/28 13:38:46;;;;;;;0.20;0.20;;;;;;;17.47;99.54;99355.22;20714194;27;20063;-74
2022/09/28 13:48:57;;;;;;;0.73;0.20;;;;;;;17.46;99.66;99348.16;20714566;27;20046;-74
2022/09/28 13:59:09;;;;;;;0.20;0.20;;;;;;;17.47;99.85;99357.91;20709221;27;20062;-74
2022/09/28 14:09:11;;;;;;;0.30;0.20;;;;;;;17.46;99.85;99368.84;20731998;27;20049;-74
2022/09/28 14:19:16;;;;;;;0.20;0.20;;;;;;;17.44;99.91;99379.78;20739438;27;20094;-74
2022/09/28 14:29:28;;;;;;;0.20;0.20;;;;;;;17.44;99.91;99393.22;20732304;27;20496;-74
2022/09/28 14:49:59;;;;;;;0.30;0.30;;;;;;;17.43;100.00;99413.06;20743872;27;20459;-74
2022/09/28 15:00:07;;;;;;;0.20;0.20;;;;;;;17.28;99.99;99390.56;20772331;27;20061;-74
2022/09/28 15:10:30;;;;;;;0.35;0.30;;;;;;;17.44;100.00;99411.19;20718936;27;20078;-74
2022/09/28 15:20:35;;;;;;;0.10;0.10;;;;;;;17.43;100.00;99428.34;20715203;27;20469;-74
2022/09/28 15:30:37;;;;;;;0.20;0.20;;;;;;;17.28;100.00;99406.69;20713877;27;20589;-74
2022/09/28 15:40:39;;;;;;;0.10;0.10;;;;;;;17.43;99.92;99439.97;20734728;27;20116;-74
2022/09/28 15:51:02;;;;;;;0.20;0.20;;;;;;;17.42;100.00;99437.44;20711130;27;20050;-74
2022/09/28 16:01:21;;;;;;;0.10;0.10;;;;;;;17.43;100.00;99439.13;20722914;27;21210;-73
2022/09/28 16:11:28;;;;;;;0.20;0.20;;;;;;;17.42;99.92;99446.34;20726699;27;20114;-74
2022/09/28 16:21:43;;;;;;;0.15;0.15;;;;;;;17.43;100.00;99450.72;20714885;27;20057;-74
2022/09/28 16:31:51;;;;;;;0.30;0.20;;;;;;;17.39;99.87;99435.94;20710430;27;20049;-74
2022/09/28 16:41:55;;;;;;;0.10;0.10;;;;;;;17.43;99.64;99456.09;20705918;27;20560;-74
2022/09/28 16:51:56;;;;;;;0.20;0.20;;;;;;;17.42;99.76;99457.13;20707466;27;20050;-74
2022/09/28 17:01:58;;;;;;;0.22;0.10;;;;;;;17.42;99.67;99461.66;20739888;27;20054;-75
2022/09/28 17:12:00;;;;;;;0.10;0.10;;;;;;;17.42;99.70;99470.56;20733922;27;20078;-73
2022/09/28 17:22:02;;;;;;;0.20;0.20;;;;;;;17.42;100.00;99480.47;20727531;27;20513;-73
2022/09/28 17:32:10;;;;;;;1.00;0.30;;;;;;;17.41;99.85;99476.97;20691686;27;20058;-74
2022/09/28 17:42:12;;;;;;;0.90;0.40;;;;;;;17.47;100.00;99484.34;20707875;27;20050;-73
2022/09/28 17:52:13;;;;;;;0.60;0.40;;;;;;;17.58;100.00;99493.94;20709648;27;20570;-73
2022/09/28 18:02:15;;;;;;;1.08;0.40;;;;;;;17.67;100.00;99489.38;20748557;27;20046;-73
2022/09/28 18:12:17;;;;;;;1.27;0.55;;;;;;;17.74;99.67;99503.88;20906175;27;20052;-73
2022/09/28 18:22:18;;;;;;;2.90;0.73;;;;;;;17.79;98.80;99497.97;20851722;27;20413;-73
2022/09/28 18:32:20;;;;;;;1.55;0.40;;;;;;;17.79;97.71;99498.81;20850675;27;20056;-73
2022/09/28 18:42:22;;;;;;;0.88;0.35;;;;;;;17.80;97.06;99505.88;20889435;27;20069;-73
2022/09/28 18:52:24;;;;;;;1.83;0.38;;;;;;;17.86;96.66;99519.66;20801767;27;20094;-76
2022/09/28 19:02:26;;;;;;;0.95;0.50;;;;;;;17.83;95.96;99528.91;20731415;27;20326;-76
2022/09/28 19:12:28;;;;;;;0.63;0.40;;;;;;;17.74;95.95;99538.88;20911394;27;20053;-75
2022/09/28 19:22:30;;;;;;;0.57;0.38;;;;;;;17.65;96.41;99537.16;20915794;27;20184;-75
2022/09/28 19:32:31;;;;;;;0.30;0.30;;;;;;;17.58;96.60;99534.31;20994189;27;20061;-76
2022/09/28 19:42:35;;;;;;;0.55;0.20;;;;;;;17.37;96.75;99515.97;21040879;27;20043;-76
2022/09/28 19:52:36;;;;;;;1.00;0.50;;;;;;;17.50;97.09;99547.75;21230466;27;20411;-76
2022/09/28 20:02:37;;;;;;;0.30;0.30;;;;;;;17.20;97.36;99515.09;21190743;27;20047;-76
2022/09/28 20:12:41;;;;;;;0.38;0.25;;;;;;;17.45;97.39;99564.41;21203625;27;20047;-75
2022/09/28 20:22:42;;;;;;;1.75;0.82;;;;;;;17.43;97.43;99569.09;21228606;27;20043;-75
2022/09/28 20:32:44;;;;;;;2.22;0.40;;;;;;;17.42;97.52;99564.72;21222693;27;20043;-76
2022/09/28 20:42:50;;;;;;;0.70;0.22;;;;;;;17.40;97.61;99577.50;21131712;27;20119;-76
2022/09/28 20:52:51;;;;;;;0.63;0.40;;;;;;;17.39;97.71;99578.50;21218372;27;20047;-76
2022/09/28 21:02:53;;;;;;;0.47;0.25;;;;;;;17.38;97.59;99590.28;21218222;27;20054;-76
2022/09/28 21:12:55;;;;;;;0.55;0.20;;;;;;;17.36;97.70;99586.91;21218419;27;20047;-76
2022/09/28 21:22:56;;;;;;;0.25;0.20;;;;;;;17.32;97.55;99583.69;21217234;27;20062;-76
2022/09/28 21:33:00;;;;;;;0.47;0.47;;;;;;;17.34;97.56;99592.44;21212801;27;20043;-75
2022/09/28 21:43:01;;;;;;;0.75;0.20;;;;;;;17.16;97.79;99572.91;21152053;27;20047;-76
2022/09/28 21:53:03;;;;;;;0.55;0.30;;;;;;;17.33;97.56;99601.53;21215092;27;20092;-75
2022/09/28 22:03:05;;;;;;;0.85;0.30;;;;;;;17.31;97.75;99608.09;21212787;27;20100;-76
2022/09/28 22:13:07;;;;;;;0.93;0.45;;;;;;;17.30;97.70;99622.56;21210202;27;20047;-76
2022/09/28 22:23:08;;;;;;;0.30;0.30;;;;;;;17.30;97.76;99628.75;21203616;27;20096;-76
2022/09/28 22:33:10;;;;;;;0.45;0.20;;;;;;;17.29;97.61;99629.75;21173035;27;20050;-76
2022/09/28 22:43:11;;;;;;;0.30;0.30;;;;;;;17.29;97.67;99643.22;21172764;27;25427;-75
2022/09/28 22:53:13;;;;;;;0.60;0.38;;;;;;;17.28;97.58;99640.69;21211416;27;20039;-76
2022/09/28 23:03:16;;;;;;;0.43;0.30;;;;;;;17.27;97.61;99639.84;21217201;27;20039;-75
2022/09/28 23:13:18;;;;;;;0.38;0.30;;;;;;;17.27;97.48;99644.41;21210239;27;20043;-76
2022/09/28 23:23:19;;;;;;;0.50;0.40;;;;;;;17.27;97.57;99644.41;21230639;27;20043;-76
2022/09/28 23:33:21;;;;;;;0.77;0.40;;;;;;;17.25;97.49;99645.41;21168058;27;20057;-76
2022/09/28 23:43:22;;;;;;;0.30;0.30;;;;;;;17.24;97.50;99645.56;21222447;27;20049;-75
2022/09/28 23:53:24;;;;;;;0.50;0.40;;;;;;;17.23;97.50;99652.78;21201159;27;20057;-76
